Terminal Aerodrome Forecast
Issued by NWS

Home | Current Version | Previous Version | Graphics & Text | Print | Product List | Glossary On
Versions: 1 2 3 4 5 6 7 8 9 10 11 12 13 14 15 16 17 18
000
FTUS43 KBIS 282328
TAFMOT
TAF
KMOT 282328Z 2900/2924 01004KT 5SM FU BKN250
     FM290400 13004KT 5SM FU SCT250
     FM291200 19004KT 5SM FU SCT250
     FM291700 18012KT P6SM FEW250=

USA.gov is the U.S. government's official web portal to all federal, state and local government web resources and services.